Time;durP1;ratioP1;P1;durP2;ratioP2;P2;SDS_P1;SDS_P2;PMS_P1;PMS_P2;Temp;Humidity;BMP_temperature;BMP_pressure;BME280_temperature;BME280_humidity;BME280_pressure;Samples;Min_cycle;Max_cycle;Signal;HPM_P1;HPM_P2
2023/05/03 00:03:24;;;;;;;8.00;4.30;;;;;;;16.36;65.66;100126.97;7737578;32;37010;-80
2023/05/03 00:07:45;;;;;;;12.32;4.10;;;;;;;16.39;65.43;100109.84;7737507;32;39420;-80
2023/05/03 00:12:01;;;;;;;8.88;4.53;;;;;;;16.36;65.53;100105.75;7737470;32;39893;-80
2023/05/03 00:16:19;;;;;;;12.37;4.32;;;;;;;16.46;65.24;100099.25;7737236;32;37863;-80
2023/05/03 00:20:36;;;;;;;5.18;4.00;;;;;;;16.38;65.24;100089.75;7721089;32;37208;-79
2023/05/03 00:24:52;;;;;;;8.73;4.45;;;;;;;16.24;65.60;100097.19;7710446;32;39048;-79
2023/05/03 00:29:08;;;;;;;7.47;4.18;;;;;;;16.47;64.92;100087.13;7710208;32;40637;-79
2023/05/03 00:33:25;;;;;;;7.37;4.03;;;;;;;16.17;65.79;100077.50;7710240;32;38846;-80
2023/05/03 00:37:41;;;;;;;7.57;4.45;;;;;;;16.42;64.96;100084.47;7709932;32;36903;-79
2023/05/03 00:41:58;;;;;;;7.37;4.12;;;;;;;16.03;66.36;100080.22;7709927;32;40036;-79
2023/05/03 00:46:15;;;;;;;6.62;4.40;;;;;;;15.93;66.94;100082.00;7710538;32;40175;-80
2023/05/03 00:50:32;;;;;;;7.32;4.47;;;;;;;15.95;66.51;100087.22;7736438;32;37740;-80
2023/05/03 00:54:49;;;;;;;6.57;4.10;;;;;;;15.91;66.78;100088.94;7735211;32;37879;-80
2023/05/03 00:59:06;;;;;;;6.25;4.15;;;;;;;15.65;67.95;100092.06;7736293;32;39374;-80
2023/05/03 01:03:22;;;;;;;7.55;4.53;;;;;;;15.97;67.05;100082.25;7737501;32;41186;-80
2023/05/03 01:08:12;;;;;;;8.20;5.00;;;;;;;15.83;67.32;100081.37;7739689;32;38843;-80
2023/05/03 01:12:41;;;;;;;8.85;5.10;;;;;;;15.74;67.83;100093.00;7738645;32;37039;-80
2023/05/03 01:17:04;;;;;;;8.68;5.20;;;;;;;15.72;68.28;100097.19;7720460;32;40064;-80
2023/05/03 01:21:21;;;;;;;9.07;4.50;;;;;;;15.91;67.60;100099.94;7711400;32;40572;-80
2023/05/03 01:25:37;;;;;;;9.13;4.40;;;;;;;15.82;67.96;100101.75;7711656;32;38062;-80
2023/05/03 01:29:54;;;;;;;8.75;4.82;;;;;;;15.96;67.41;100102.59;7712770;32;37286;-79
2023/05/03 01:34:47;;;;;;;6.80;4.53;;;;;;;15.95;67.35;100098.19;7712721;32;39049;-80
2023/05/03 01:39:08;;;;;;;8.13;4.62;;;;;;;16.18;66.81;100098.37;7721196;32;39980;-80
2023/05/03 01:43:26;;;;;;;5.97;4.05;;;;;;;16.00;67.36;100098.13;7728700;32;38057;-80
2023/05/03 01:47:42;;;;;;;7.18;4.32;;;;;;;16.12;66.55;100095.72;7712583;32;37044;-80
2023/05/03 01:51:58;;;;;;;9.50;4.43;;;;;;;16.08;66.60;100089.19;7711057;32;40081;-80
2023/05/03 01:56:15;;;;;;;5.18;4.12;;;;;;;16.07;66.55;100090.28;7712299;32;40016;-80
2023/05/03 02:00:31;;;;;;;9.82;4.47;;;;;;;16.14;66.19;100090.75;7712153;32;37891;-79
2023/05/03 02:04:48;;;;;;;9.95;4.90;;;;;;;16.09;66.35;100085.34;7712166;32;37138;-79
2023/05/03 02:09:04;;;;;;;7.72;4.60;;;;;;;16.10;66.32;100081.44;7712339;32;39023;-80
2023/05/03 02:13:21;;;;;;;7.50;5.03;;;;;;;16.02;66.50;100079.38;7712565;32;40203;-80
2023/05/03 02:17:37;;;;;;;8.32;4.70;;;;;;;15.68;67.72;100079.66;7711622;32;37980;-79
2023/05/03 02:21:53;;;;;;;11.80;5.40;;;;;;;15.81;67.56;100073.41;7711692;32;36996;-80
2023/05/03 02:26:10;;;;;;;7.37;4.62;;;;;;;16.00;66.67;100076.12;7711687;32;40153;-80
2023/05/03 02:30:26;;;;;;;9.30;4.65;;;;;;;15.92;67.21;100074.09;7711854;32;40754;-79
2023/05/03 02:34:46;;;;;;;8.27;4.93;;;;;;;15.71;67.93;100074.37;7711797;32;37974;-80
2023/05/03 02:39:02;;;;;;;6.75;4.65;;;;;;;16.11;66.56;100072.09;7719215;32;36976;-80
2023/05/03 02:43:18;;;;;;;8.07;4.78;;;;;;;16.20;66.13;100063.97;7738664;32;39058;-80
2023/05/03 02:47:34;;;;;;;9.02;4.90;;;;;;;16.02;66.42;100065.62;7738398;32;40853;-80
2023/05/03 02:51:51;;;;;;;7.50;5.15;;;;;;;15.97;66.75;100065.75;7738464;32;37969;-80
2023/05/03 02:56:08;;;;;;;8.88;5.35;;;;;;;15.87;67.28;100061.22;7738405;32;37865;-80
2023/05/03 03:00:24;;;;;;;10.85;5.00;;;;;;;15.86;67.22;100062.34;7738299;32;39509;-80
2023/05/03 03:04:41;;;;;;;9.20;4.78;;;;;;;16.00;66.72;100058.81;7738342;32;40039;-79
2023/05/03 03:08:57;;;;;;;8.10;4.95;;;;;;;16.00;66.72;100064.31;7717661;32;38006;-80
2023/05/03 03:13:16;;;;;;;9.38;4.60;;;;;;;16.06;66.46;100060.38;7711466;32;37882;-79
2023/05/03 03:17:32;;;;;;;7.97;5.28;;;;;;;15.87;67.08;100065.91;7711475;32;39847;-80
2023/05/03 03:21:49;;;;;;;10.48;5.07;;;;;;;15.86;67.16;100062.34;7711152;32;40103;-80
2023/05/03 03:26:06;;;;;;;12.50;5.40;;;;;;;15.92;66.85;100060.34;7710872;32;38038;-80
2023/05/03 03:30:22;;;;;;;8.02;5.12;;;;;;;16.02;66.49;100062.88;7711163;32;37864;-80
2023/05/03 03:34:38;;;;;;;7.30;4.97;;;;;;;15.93;66.88;100065.50;7716644;32;40021;-80
2023/05/03 03:38:54;;;;;;;7.93;5.40;;;;;;;16.05;66.41;100067.78;7737830;32;39646;-80
2023/05/03 03:43:11;;;;;;;10.15;5.37;;;;;;;16.13;66.10;100064.34;7737837;32;38202;-80
2023/05/03 03:47:27;;;;;;;9.88;4.65;;;;;;;16.08;65.89;100072.69;7737831;32;37835;-80
2023/05/03 03:51:43;;;;;;;7.75;5.30;;;;;;;16.07;66.06;100073.00;7737693;32;40128;-79
2023/05/03 03:55:59;;;;;;;7.55;5.30;;;;;;;16.03;66.12;100085.72;7737561;32;40021;-80
2023/05/03 04:00:16;;;;;;;9.23;5.32;;;;;;;15.95;66.46;100079.78;7736331;32;37985;-81
2023/05/03 04:04:32;;;;;;;9.50;5.07;;;;;;;16.17;65.63;100075.56;7719177;32;37685;-80
2023/05/03 04:08:49;;;;;;;8.65;4.82;;;;;;;16.09;65.73;100092.75;7710709;32;40117;-80
2023/05/03 04:13:05;;;;;;;8.52;5.05;;;;;;;16.12;65.66;100100.41;7710466;32;40815;-80
2023/05/03 04:17:22;;;;;;;9.07;5.07;;;;;;;16.09;65.99;100101.84;7710531;32;38470;-80
2023/05/03 04:21:38;;;;;;;7.45;4.85;;;;;;;16.14;65.92;100092.66;7710264;32;38174;-80
2023/05/03 04:25:55;;;;;;;8.32;5.15;;;;;;;16.23;65.14;100101.03;7710411;32;39840;-80
2023/05/03 04:30:13;;;;;;;8.07;5.47;;;;;;;16.02;65.85;100112.38;7714003;32;40757;-80
2023/05/03 04:34:30;;;;;;;8.18;5.00;;;;;;;15.93;66.43;100114.19;7736916;32;39021;-80
2023/05/03 04:38:46;;;;;;;8.45;5.10;;;;;;;16.05;66.34;100122.78;7741516;32;37600;-80
2023/05/03 04:43:02;;;;;;;11.57;5.60;;;;;;;16.11;66.22;100124.34;7745766;32;39453;-80
2023/05/03 04:47:19;;;;;;;11.05;5.57;;;;;;;15.96;67.00;100130.91;7745513;32;40110;-80
2023/05/03 04:51:35;;;;;;;7.75;4.82;;;;;;;16.18;66.39;100120.38;7745420;32;37961;-80
2023/05/03 04:55:51;;;;;;;13.80;5.90;;;;;;;15.99;67.27;100129.50;7745307;32;37050;-80
2023/05/03 05:00:11;;;;;;;8.30;5.72;;;;;;;16.22;66.43;100129.69;7744104;32;37567;-79
2023/05/03 05:04:27;;;;;;;13.73;5.53;;;;;;;16.18;66.50;100126.72;7745341;32;40801;-79
2023/05/03 05:08:43;;;;;;;8.98;5.40;;;;;;;16.12;66.78;100145.22;7744994;32;38021;-80
2023/05/03 05:13:00;;;;;;;8.65;5.87;;;;;;;16.34;66.24;100143.75;7745000;32;37865;-79
2023/05/03 05:17:16;;;;;;;12.35;6.90;;;;;;;16.26;66.51;100152.69;7744865;32;39826;-80
2023/05/03 05:21:33;;;;;;;11.27;7.30;;;;;;;16.28;66.64;100153.22;7744450;32;40901;-80
2023/05/03 05:25:49;;;;;;;11.20;6.80;;;;;;;16.23;67.15;100158.78;7741919;32;38013;-79
2023/05/03 05:30:06;;;;;;;10.40;6.72;;;;;;;16.26;67.22;100152.69;7717707;32;37235;-80
2023/05/03 05:34:22;;;;;;;11.00;6.20;;;;;;;16.30;67.21;100156.50;7717626;32;39934;-79
2023/05/03 05:38:39;;;;;;;10.80;6.50;;;;;;;16.47;66.71;100161.41;7717257;32;39975;-79
2023/05/03 05:42:56;;;;;;;12.73;6.25;;;;;;;16.44;67.46;100164.78;7717227;32;38010;-79
2023/05/03 05:47:12;;;;;;;14.00;7.25;;;;;;;16.56;66.96;100167.03;7717289;32;37138;-79
2023/05/03 05:51:30;;;;;;;10.88;7.22;;;;;;;16.08;68.73;100168.94;7712999;32;39272;-80
2023/05/03 05:55:46;;;;;;;11.85;6.75;;;;;;;16.45;67.74;100170.00;7713078;32;40790;-80
2023/05/03 06:00:08;;;;;;;10.70;6.95;;;;;;;16.59;67.14;100175.53;7739000;32;38740;-80
2023/05/03 06:04:25;;;;;;;10.27;6.62;;;;;;;16.38;67.82;100183.31;7739122;32;37263;-80
2023/05/03 06:08:42;;;;;;;7.70;5.60;;;;;;;16.61;67.11;100177.97;7738931;32;39410;-79
2023/05/03 06:12:58;;;;;;;9.98;5.50;;;;;;;16.63;66.72;100184.00;7738955;32;40090;-80
2023/05/03 06:17:14;;;;;;;11.30;6.20;;;;;;;16.70;66.16;100187.16;7738782;32;38642;-68
2023/05/03 06:21:31;;;;;;;12.35;6.15;;;;;;;16.68;66.43;100181.16;7738605;32;37865;-68
2023/05/03 06:25:47;;;;;;;9.85;5.65;;;;;;;17.12;65.08;100182.53;7736092;32;40069;-80
2023/05/03 06:30:05;;;;;;;8.98;5.78;;;;;;;16.82;66.09;100190.25;7738866;32;40824;-82
2023/05/03 06:34:21;;;;;;;14.85;6.75;;;;;;;16.40;67.36;100199.50;7738716;32;37903;-83
2023/05/03 06:38:37;;;;;;;9.30;6.10;;;;;;;16.66;66.91;100203.47;7710752;32;37173;-82
2023/05/03 06:42:54;;;;;;;11.23;6.72;;;;;;;16.88;66.69;100202.84;7711918;32;40248;-82
2023/05/03 06:47:10;;;;;;;9.02;6.28;;;;;;;16.64;67.70;100211.22;7711925;32;40171;-82
2023/05/03 06:51:28;;;;;;;9.70;6.75;;;;;;;16.57;68.34;100210.78;7723869;32;37773;-81
2023/05/03 06:55:45;;;;;;;11.95;6.70;;;;;;;16.73;67.46;100214.09;7738502;32;36995;-82
2023/05/03 07:00:05;;;;;;;10.43;6.93;;;;;;;16.59;68.06;100213.22;7737303;32;39297;-83
2023/05/03 07:04:22;;;;;;;13.15;7.22;;;;;;;16.83;67.00;100218.59;7733266;32;40766;-82
2023/05/03 07:08:38;;;;;;;12.50;6.35;;;;;;;16.88;66.66;100221.28;7724778;32;37685;-83
2023/05/03 07:12:55;;;;;;;16.40;7.65;;;;;;;17.12;66.42;100223.03;7711492;32;36943;-83
2023/05/03 07:17:11;;;;;;;9.77;6.45;;;;;;;17.15;66.55;100237.03;7711563;32;40021;-81
2023/05/03 07:21:28;;;;;;;11.38;7.22;;;;;;;17.30;66.45;100233.16;7736090;32;39894;-79
2023/05/03 07:25:44;;;;;;;12.75;7.82;;;;;;;17.40;67.08;100240.37;7723911;32;38563;-79
2023/05/03 07:30:02;;;;;;;10.40;7.05;;;;;;;17.45;66.97;100241.13;7733335;32;37613;-81
2023/05/03 07:34:19;;;;;;;16.40;7.40;;;;;;;17.48;66.84;100245.19;7733512;32;38215;-78
2023/05/03 07:38:36;;;;;;;10.13;6.87;;;;;;;17.63;66.11;100235.78;7736422;32;40115;-80
2023/05/03 07:42:52;;;;;;;10.30;6.70;;;;;;;17.62;66.91;100240.47;7737827;32;38029;-81
2023/05/03 07:47:08;;;;;;;9.98;6.82;;;;;;;17.77;65.49;100244.06;7737944;32;36765;-80
2023/05/03 07:51:25;;;;;;;13.93;7.12;;;;;;;17.79;66.19;100247.31;7736315;32;39908;-81
2023/05/03 07:55:42;;;;;;;11.12;6.72;;;;;;;17.67;66.37;100253.34;7737766;32;39985;-78
2023/05/03 07:59:58;;;;;;;9.52;6.45;;;;;;;17.52;65.91;100257.22;7737617;32;37845;-77
2023/05/03 08:04:14;;;;;;;11.35;7.70;;;;;;;17.61;65.07;100252.66;7731744;32;37144;-77
2023/05/03 08:08:32;;;;;;;12.20;7.53;;;;;;;17.69;65.56;100255.78;7710797;32;39324;-77
2023/05/03 08:12:49;;;;;;;13.10;8.13;;;;;;;17.62;64.80;100254.25;7731702;32;40868;-79
2023/05/03 08:17:05;;;;;;;15.48;7.10;;;;;;;17.81;64.59;100265.16;7737380;32;37907;-79
2023/05/03 08:21:23;;;;;;;12.63;8.02;;;;;;;17.69;66.38;100266.81;7722017;32;37400;-78
2023/05/03 08:25:40;;;;;;;10.63;6.95;;;;;;;18.18;65.20;100262.47;7710709;32;40225;-78
2023/05/03 08:34:16;;;;;;;12.90;6.90;;;;;;;18.49;63.45;100272.75;7737098;32;38708;-78
2023/05/03 08:38:33;;;;;;;8.73;5.45;;;;;;;18.58;63.04;100259.84;7737038;32;37096;-78
2023/05/03 08:42:50;;;;;;;8.30;5.47;;;;;;;18.65;63.50;100259.44;7736599;32;39175;-78
2023/05/03 08:47:06;;;;;;;8.98;5.25;;;;;;;18.66;62.62;100267.41;7736789;32;39767;-78
2023/05/03 08:51:23;;;;;;;9.52;5.97;;;;;;;18.97;61.40;100269.38;7735525;32;38115;-76
2023/05/03 08:55:40;;;;;;;8.45;5.43;;;;;;;18.84;61.26;100275.81;7736658;32;37152;-76
2023/05/03 09:00:00;;;;;;;8.60;5.25;;;;;;;18.97;62.07;100280.44;7731931;32;39068;-77
2023/05/03 09:04:17;;;;;;;6.85;4.75;;;;;;;18.86;59.92;100279.06;7731335;32;40050;-78
2023/05/03 09:08:42;;;;;;;8.80;5.05;;;;;;;19.30;58.93;100282.91;7718648;32;38758;-77
2023/05/03 09:13:00;;;;;;;8.02;4.70;;;;;;;19.21;59.40;100288.34;7722986;32;37722;-77
2023/05/03 09:17:20;;;;;;;7.15;4.90;;;;;;;19.30;58.46;100285.66;7736160;32;41278;-76
2023/05/03 09:21:44;;;;;;;8.98;5.00;;;;;;;19.55;57.20;100286.88;7735820;32;39733;-77
2023/05/03 09:26:00;;;;;;;6.50;4.70;;;;;;;18.83;60.08;100293.50;7729706;32;38723;-76
2023/05/03 09:30:18;;;;;;;7.03;4.05;;;;;;;18.53;58.82;100288.41;7739151;32;36845;-76
2023/05/03 09:34:35;;;;;;;8.73;4.40;;;;;;;18.91;58.46;100290.81;7725028;32;39006;-76
2023/05/03 09:38:52;;;;;;;7.95;4.55;;;;;;;18.88;60.64;100285.09;7713740;32;40995;-78
2023/05/03 09:43:10;;;;;;;7.10;4.57;;;;;;;18.52;60.13;100283.19;7739391;32;37780;-79
2023/05/03 09:47:27;;;;;;;8.48;5.12;;;;;;;17.96;59.77;100288.88;7739485;32;36992;-79
2023/05/03 09:51:47;;;;;;;11.02;5.45;;;;;;;17.84;62.77;100286.62;7739418;32;39400;-81
2023/05/03 09:56:08;;;;;;;7.95;5.40;;;;;;;17.77;62.08;100285.41;7737646;32;39887;-77
2023/05/03 10:00:25;;;;;;;9.05;5.43;;;;;;;18.08;62.45;100290.31;7737883;32;38900;-80
2023/05/03 10:04:47;;;;;;;5.95;4.40;;;;;;;17.93;62.36;100286.72;7717371;32;37751;-77
2023/05/03 10:09:20;;;;;;;9.02;5.35;;;;;;;18.21;61.22;100281.16;7737190;32;39390;-76
2023/05/03 10:13:36;;;;;;;;;;;;;;;18.10;62.85;100277.00;7734713;32;40117;-76
2023/05/03 10:17:53;;;;;;;6.75;4.22;;;;;;;18.33;60.26;100270.41;7740732;32;38027;-77
2023/05/03 10:22:10;;;;;;;8.57;5.45;;;;;;;19.20;61.48;100267.41;7735351;32;37075;-77
2023/05/03 10:26:26;;;;;;;8.50;4.25;;;;;;;18.71;59.32;100270.03;7734751;32;39239;-77
2023/05/03 10:30:43;;;;;;;7.80;4.85;;;;;;;19.47;57.43;100260.84;7723319;32;40075;-77
2023/05/03 10:35:02;;;;;;;6.12;4.30;;;;;;;18.95;57.12;100263.34;7724208;32;38777;-77
2023/05/03 10:39:20;;;;;;;9.27;5.03;;;;;;;19.02;56.71;100257.37;7715801;32;37052;-76
2023/05/03 10:43:36;;;;;;;11.12;5.10;;;;;;;19.22;57.54;100250.50;7732480;32;39288;-76
2023/05/03 10:48:25;;;;;;;8.73;4.90;;;;;;;19.02;56.28;100252.66;7735409;32;39771;-76
2023/05/03 10:52:41;;;;;;;6.90;4.85;;;;;;;18.89;57.28;100253.59;7711189;32;38690;-70
2023/05/03 10:56:58;;;;;;;6.72;4.53;;;;;;;18.75;58.39;100256.41;7737679;32;37139;-70
2023/05/03 11:01:16;;;;;;;7.43;4.97;;;;;;;18.54;58.48;100264.34;7736186;32;39354;-77
2023/05/03 11:05:32;;;;;;;6.90;4.50;;;;;;;19.05;58.57;100260.31;7738144;32;38266;-77
2023/05/03 11:09:49;;;;;;;6.93;4.60;;;;;;;18.37;57.06;100260.34;7735135;32;37922;-78
2023/05/03 11:14:07;;;;;;;6.25;4.35;;;;;;;18.95;57.18;100253.16;7733703;32;36712;-78
2023/05/03 11:18:27;;;;;;;9.35;4.78;;;;;;;19.21;57.07;100251.63;7727221;32;39334;-77
2023/05/03 11:22:45;;;;;;;8.20;4.87;;;;;;;19.32;57.93;100256.56;7718867;32;40056;-78
2023/05/03 11:27:01;;;;;;;9.60;5.30;;;;;;;19.02;58.97;100254.63;7711472;32;37946;-78
2023/05/03 11:31:23;;;;;;;8.17;5.20;;;;;;;19.51;58.28;100250.75;7708949;32;37795;-78
2023/05/03 11:35:41;;;;;;;8.85;5.00;;;;;;;19.38;58.05;100251.69;7708186;32;39461;-78
2023/05/03 11:39:58;;;;;;;7.75;4.97;;;;;;;19.04;58.93;100255.94;7708353;32;40502;-78
2023/05/03 11:44:15;;;;;;;8.23;4.75;;;;;;;18.86;59.81;100254.22;7709927;32;37951;-78
2023/05/03 11:48:33;;;;;;;5.97;4.28;;;;;;;18.74;59.38;100255.56;7711058;32;37042;-78
2023/05/03 11:52:50;;;;;;;6.93;4.62;;;;;;;18.43;60.25;100257.47;7711194;32;40382;-79
2023/05/03 11:57:13;;;;;;;6.95;4.60;;;;;;;18.57;60.48;100260.97;7711128;32;40569;-78
2023/05/03 12:01:30;;;;;;;7.20;4.57;;;;;;;18.42;60.84;100255.81;7709820;32;37979;-78
2023/05/03 12:05:48;;;;;;;10.48;4.50;;;;;;;18.97;60.30;100249.22;7710883;32;36858;-79
2023/05/03 12:10:18;;;;;;;6.87;4.78;;;;;;;19.19;59.81;100251.13;7710995;32;39093;-78
2023/05/03 12:15:00;;;;;;;7.87;5.47;;;;;;;19.23;59.15;100241.91;7710922;32;39865;-78
2023/05/03 12:19:29;;;;;;;9.00;4.80;;;;;;;18.86;59.49;100254.22;7710701;32;37935;-78
2023/05/03 12:23:50;;;;;;;8.75;5.40;;;;;;;18.22;60.97;100251.63;7710488;32;37480;-79
2023/05/03 12:28:10;;;;;;;9.30;5.35;;;;;;;17.96;61.85;100249.47;7710621;32;39321;-77
2023/05/03 12:32:29;;;;;;;13.80;6.07;;;;;;;18.07;61.81;100242.56;7710566;32;40219;-78
2023/05/03 12:36:46;;;;;;;7.90;5.12;;;;;;;18.48;61.07;100243.56;7710352;32;37962;-78
2023/05/03 12:41:04;;;;;;;8.25;4.78;;;;;;;19.13;59.67;100231.94;7710281;32;36860;-78
2023/05/03 12:45:29;;;;;;;7.32;5.00;;;;;;;19.60;59.61;100227.84;7710212;32;40200;-78
2023/05/03 12:49:50;;;;;;;8.00;4.50;;;;;;;19.36;57.96;100226.31;7710025;32;41092;-78
2023/05/03 12:54:10;;;;;;;6.47;4.30;;;;;;;19.70;57.10;100222.03;7709938;32;38729;-79
2023/05/03 12:58:27;;;;;;;6.68;4.47;;;;;;;18.92;58.60;100230.84;7710511;32;37155;-79
2023/05/03 13:02:46;;;;;;;7.40;4.70;;;;;;;19.06;58.96;100223.28;7713351;32;38716;-79
2023/05/03 13:07:05;;;;;;;7.90;4.62;;;;;;;19.18;59.20;100210.78;7713202;32;39786;-79
2023/05/03 13:11:29;;;;;;;6.87;4.22;;;;;;;19.20;58.83;100214.88;7713119;32;37634;-79
2023/05/03 13:15:46;;;;;;;7.82;3.80;;;;;;;19.43;58.70;100201.78;7713240;32;37038;-79
2023/05/03 13:20:06;;;;;;;6.62;4.28;;;;;;;19.76;57.24;100204.16;7707403;32;185234;-79
2023/05/03 13:24:22;;;;;;;7.35;4.20;;;;;;;19.74;56.61;100203.66;7712659;32;41198;-78
2023/05/03 13:28:41;;;;;;;7.78;4.85;;;;;;;19.70;57.17;100199.91;7712903;32;37716;-78
2023/05/03 13:33:00;;;;;;;6.18;4.05;;;;;;;19.10;56.75;100207.69;7712775;32;37848;-78
2023/05/03 13:37:18;;;;;;;6.47;4.25;;;;;;;19.58;57.17;100196.94;7712832;32;39402;-79
2023/05/03 13:41:35;;;;;;;6.25;4.28;;;;;;;18.96;57.25;100204.22;7712680;32;40732;-79
2023/05/03 13:45:58;;;;;;;6.90;4.47;;;;;;;18.88;58.33;100196.69;7712819;32;38109;-79
2023/05/03 13:50:15;;;;;;;8.43;4.72;;;;;;;18.84;57.83;100192.97;7712667;32;37164;-79
2023/05/03 13:54:31;;;;;;;7.70;4.72;;;;;;;19.12;58.24;100186.06;7712553;32;39335;-78
2023/05/03 13:58:47;;;;;;;7.18;4.50;;;;;;;19.08;57.59;100184.28;7712516;32;40853;-79
2023/05/03 14:03:05;;;;;;;7.53;4.87;;;;;;;18.29;59.50;100186.59;7712328;32;38289;-79
2023/05/03 14:07:21;;;;;;;6.28;4.32;;;;;;;18.49;59.22;100187.19;7712424;32;37226;-79
2023/05/03 14:11:39;;;;;;;7.22;4.95;;;;;;;18.72;59.05;100188.78;7711369;32;40327;-79
2023/05/03 14:15:56;;;;;;;7.20;4.60;;;;;;;19.00;58.61;100185.87;7712154;32;42039;-79
2023/05/03 14:20:16;;;;;;;7.68;5.10;;;;;;;18.66;59.28;100179.03;7712104;32;37691;-79
2023/05/03 14:24:32;;;;;;;7.37;5.28;;;;;;;18.61;59.58;100187.44;7712098;32;36858;-78
2023/05/03 14:28:49;;;;;;;9.57;4.87;;;;;;;18.53;60.29;100185.44;7711838;32;40150;-79
2023/05/03 14:33:05;;;;;;;10.45;5.43;;;;;;;18.12;61.40;100186.47;7712234;32;39939;-79
2023/05/03 14:37:21;;;;;;;9.93;5.28;;;;;;;18.55;60.90;100186.75;7712008;32;37952;-79
2023/05/03 14:41:38;;;;;;;8.07;5.37;;;;;;;18.91;59.87;100179.50;7711964;32;37919;-79
2023/05/03 14:45:54;;;;;;;8.77;5.28;;;;;;;18.87;59.70;100184.03;7712009;32;40089;-79
2023/05/03 14:50:10;;;;;;;8.43;5.70;;;;;;;18.88;60.21;100185.66;7712096;32;39838;-79
2023/05/03 14:54:27;;;;;;;12.68;5.97;;;;;;;19.13;60.33;100179.41;7711895;32;38055;-79
2023/05/03 14:58:43;;;;;;;12.15;5.35;;;;;;;19.23;59.82;100180.25;7711786;32;37207;-79
2023/05/03 15:02:59;;;;;;;8.88;4.97;;;;;;;19.51;59.64;100180.84;7711690;32;40193;-79
2023/05/03 15:07:16;;;;;;;10.75;5.10;;;;;;;19.91;58.84;100174.41;7711714;32;40911;-79
2023/05/03 15:11:32;;;;;;;10.05;4.60;;;;;;;19.49;59.04;100169.28;7711677;32;37931;-79
2023/05/03 15:15:48;;;;;;;7.18;4.65;;;;;;;19.83;58.54;100176.00;7711703;32;37674;-79
2023/05/03 15:20:06;;;;;;;11.90;5.68;;;;;;;20.00;58.42;100176.00;7711655;32;39930;-79
2023/05/03 15:24:22;;;;;;;8.45;4.70;;;;;;;19.80;57.77;100177.47;7710809;32;39818;-79
2023/05/03 15:28:38;;;;;;;7.05;4.62;;;;;;;19.89;57.29;100175.53;7711432;32;37799;-79
2023/05/03 15:32:55;;;;;;;7.65;4.80;;;;;;;19.58;58.30;100174.81;7711463;32;37167;-79
2023/05/03 15:37:11;;;;;;;9.20;5.12;;;;;;;19.48;57.59;100171.22;7711442;32;40091;-79
2023/05/03 15:41:28;;;;;;;8.85;5.05;;;;;;;19.10;59.34;100169.00;7711265;32;39872;-79
2023/05/03 15:45:44;;;;;;;10.00;5.43;;;;;;;19.41;58.37;100165.34;7711328;32;37981;-79
2023/05/03 15:50:01;;;;;;;7.72;4.95;;;;;;;19.13;58.87;100171.12;7711262;32;37181;-79
2023/05/03 15:54:18;;;;;;;12.40;4.70;;;;;;;19.26;58.79;100169.37;7711253;32;39712;-79
2023/05/03 15:58:35;;;;;;;9.77;4.90;;;;;;;19.07;59.05;100166.88;7711130;32;39682;-79
2023/05/03 16:02:52;;;;;;;7.93;4.40;;;;;;;19.12;58.34;100163.16;7710888;32;37985;-78
2023/05/03 16:07:08;;;;;;;7.53;4.70;;;;;;;19.20;58.27;100169.88;7710754;32;37045;-78
2023/05/03 16:11:24;;;;;;;7.05;4.20;;;;;;;19.10;58.48;100165.44;7710739;32;39209;-78
2023/05/03 16:15:41;;;;;;;7.87;4.57;;;;;;;19.04;58.13;100172.22;7710907;32;40267;-79
2023/05/03 16:19:57;;;;;;;6.55;4.05;;;;;;;18.84;59.00;100179.16;7709629;32;38209;-79
2023/05/03 16:24:13;;;;;;;8.90;5.05;;;;;;;18.69;59.43;100175.63;7710387;32;37151;-79
2023/05/03 16:28:30;;;;;;;6.87;4.20;;;;;;;18.68;59.64;100174.00;7710625;32;39410;-78
2023/05/03 16:32:47;;;;;;;13.20;5.05;;;;;;;18.56;60.16;100180.09;7709402;32;39902;-78
2023/05/03 16:37:04;;;;;;;8.07;4.70;;;;;;;18.46;60.23;100174.03;7710539;32;37970;-78
2023/05/03 16:41:20;;;;;;;10.32;5.22;;;;;;;18.57;60.51;100172.63;7710365;32;37063;-79
2023/05/03 16:45:36;;;;;;;7.95;5.07;;;;;;;18.12;61.27;100175.41;7710202;32;39049;-78
2023/05/03 16:49:53;;;;;;;10.02;4.43;;;;;;;18.36;60.38;100164.88;7710165;32;40009;-79
2023/05/03 16:54:10;;;;;;;10.73;5.15;;;;;;;18.52;59.28;100168.06;7709972;32;38791;-79
2023/05/03 16:58:27;;;;;;;13.75;5.12;;;;;;;17.98;60.81;100168.00;7709846;32;37170;-79
2023/05/03 17:02:43;;;;;;;10.63;4.68;;;;;;;18.41;59.27;100179.69;7709720;32;39362;-79
2023/05/03 17:06:59;;;;;;;6.43;3.78;;;;;;;18.48;59.53;100174.53;7709574;32;40843;-79
2023/05/03 17:11:16;;;;;;;6.93;3.72;;;;;;;18.55;58.61;100183.19;7709513;32;38260;-79
2023/05/03 17:15:32;;;;;;;4.93;3.55;;;;;;;18.35;58.91;100184.50;7709581;32;37817;-79
2023/05/03 17:19:48;;;;;;;6.20;3.42;;;;;;;18.47;59.31;100184.78;7709425;32;39894;-79
2023/05/03 17:24:05;;;;;;;8.32;3.58;;;;;;;18.38;58.62;100179.19;7708949;32;40805;-79
2023/05/03 17:28:21;;;;;;;7.75;3.72;;;;;;;18.38;59.03;100184.72;7709043;32;38820;-79
2023/05/03 17:32:38;;;;;;;9.75;4.07;;;;;;;18.18;60.51;100194.31;7709056;32;37106;-79
2023/05/03 17:36:57;;;;;;;5.90;3.42;;;;;;;18.39;59.54;100197.38;7708978;32;39263;-79
2023/05/03 17:41:14;;;;;;;6.97;3.65;;;;;;;18.47;58.57;100195.81;7708914;32;40292;-79
2023/05/03 17:45:30;;;;;;;6.15;4.10;;;;;;;18.21;58.28;100206.66;7710318;32;38717;-78
2023/05/03 17:49:46;;;;;;;9.45;3.80;;;;;;;18.24;58.24;100210.75;7714161;32;36749;-79
2023/05/03 17:54:03;;;;;;;10.85;4.10;;;;;;;18.21;58.49;100209.41;7713116;32;39894;-78
2023/05/03 17:58:19;;;;;;;6.07;3.70;;;;;;;18.25;58.19;100212.34;7723314;32;39900;-79
2023/05/03 18:02:35;;;;;;;7.60;3.62;;;;;;;18.17;59.09;100211.16;7712137;32;38023;-78
2023/05/03 18:06:53;;;;;;;7.55;3.53;;;;;;;18.12;59.12;100214.03;7735660;32;36790;-78
2023/05/03 18:11:09;;;;;;;9.40;3.95;;;;;;;17.95;59.30;100209.19;7744972;32;39492;-78
2023/05/03 18:15:25;;;;;;;8.43;3.62;;;;;;;17.77;60.12;100214.53;7720077;32;39931;-78
2023/05/03 18:19:44;;;;;;;7.05;3.75;;;;;;;17.96;59.21;100217.16;7731784;32;38815;-78
2023/05/03 18:24:01;;;;;;;6.65;3.53;;;;;;;17.47;60.80;100227.00;7731431;32;36763;-78
2023/05/03 18:28:19;;;;;;;6.93;4.03;;;;;;;17.54;59.95;100221.94;7711064;32;39255;-76
2023/05/03 18:32:36;;;;;;;5.72;3.47;;;;;;;17.62;59.34;100226.69;7710277;32;39928;-78
2023/05/03 18:36:52;;;;;;;6.20;3.60;;;;;;;17.33;59.78;100231.72;7720420;32;37717;-77
2023/05/03 18:41:14;;;;;;;6.12;3.55;;;;;;;17.37;59.76;100230.00;7722897;32;36854;-76
2023/05/03 18:45:30;;;;;;;9.10;3.83;;;;;;;17.38;59.71;100237.94;7731433;32;39133;-78
2023/05/03 18:49:51;;;;;;;6.22;3.95;;;;;;;16.59;62.01;100251.75;7722511;32;40466;-77
2023/05/03 18:54:08;;;;;;;8.20;4.40;;;;;;;17.10;60.40;100244.56;7735587;32;38031;-78
2023/05/03 18:58:25;;;;;;;8.43;4.35;;;;;;;17.10;59.77;100250.91;7713613;32;37834;-79
2023/05/03 19:02:41;;;;;;;8.15;4.30;;;;;;;17.03;60.44;100253.25;7719966;32;39344;-79
2023/05/03 19:06:57;;;;;;;7.28;4.40;;;;;;;16.66;61.23;100263.19;7736565;32;39872;-79
2023/05/03 19:11:14;;;;;;;12.50;4.85;;;;;;;16.72;61.06;100259.25;7732598;32;38868;-79
2023/05/03 19:15:31;;;;;;;9.48;4.72;;;;;;;16.85;60.23;100260.44;7735160;32;37194;-80
2023/05/03 19:19:47;;;;;;;7.95;3.90;;;;;;;17.06;59.83;100260.91;7735207;32;39257;-77
2023/05/03 19:24:03;;;;;;;12.18;4.93;;;;;;;16.87;60.26;100253.50;7733803;32;40009;-78
2023/05/03 19:28:20;;;;;;;8.13;5.00;;;;;;;16.85;60.46;100263.19;7728463;32;38009;-78
2023/05/03 19:32:37;;;;;;;7.22;4.25;;;;;;;16.72;60.04;100270.25;7735927;32;37028;-79
2023/05/03 19:36:54;;;;;;;11.93;4.57;;;;;;;16.45;60.36;100269.06;7736116;32;39346;-80
2023/05/03 19:41:13;;;;;;;6.82;4.05;;;;;;;16.37;60.73;100277.16;7736204;32;39594;-79
2023/05/03 19:45:29;;;;;;;9.43;4.28;;;;;;;16.23;60.97;100277.09;7730718;32;37935;-79
2023/05/03 19:49:45;;;;;;;8.85;4.20;;;;;;;16.49;60.18;100280.28;7728044;32;37318;-80
2023/05/03 19:54:02;;;;;;;9.07;4.62;;;;;;;16.56;59.73;100282.62;7718742;32;40127;-80
2023/05/03 19:58:18;;;;;;;8.10;4.18;;;;;;;16.65;59.25;100284.41;7733967;32;39930;-81
2023/05/03 20:02:36;;;;;;;9.32;4.07;;;;;;;16.48;59.39;100282.19;7727946;32;38304;-81